KCMY/CMY METAR and TAF weather

Enter ICAO airport designator
Station Type Date Time Source
KCMY METAR 2018/12/12 17:15 UTC NOAA

KCMY 121715Z AUTO 00000KT 3/4SM BR OVC003 M01/M01 A2968 RMK AO2 T10101010


Station Type Date Time Source
KCMY Decoded METAR 2018/12/12 17:15 UTC NOAA

Sparta, Sparta / Fort McCoy Airport, WI, United States (KCMY) 43-57-30N 090-44-16W
Dec 12, 2018 - 12:15 PM EST / 2018.12.12 1715 UTC
Wind: Calm:0
Visibility: 3/4 mile(s):0
Sky conditions: overcast
Weather: mist
Temperature: 30.2 F (-1.0 C)
Dew Point: 30.2 F (-1.0 C)
Relative Humidity: 100%
Pressure (altimeter): 29.68 in. Hg (1005 hPa)
ob: KCMY 121715Z AUTO 00000KT 3/4SM BR OVC003 M01/M01 A2968 RMK AO2 T10101010
cycle: 17

Station Type Date Time Source
KCMY TAF UTC NOAA

Error!


Example: see airport list